Red River Army Depot, Texas
Current Conditions -  °F | °C
As of 10:53 AM on Friday 24 Oct 2014 (Local Time) from KTXK Reporting Station
Clear Clear  
Wind Chill: 66°   Ceiling: Unl
Heat Index: 66°   Visibility: 10mi
Dew Point: 51°   Wind: 3mph
Humidity: 59%   Direction: NA
Pressure: 30.2"   Gusts: NA
Location:  33.3633°N, 94.2141°W
Report Text: KTXK 241553Z VRB03KT 10SM CLR 19/11 A3020 RMK AO2 SLP223 T01890106
Loading
Personal Weather Stations






























Interactive Weather Map
Tropical Storm Tracking
New forecast layout! Learn more

10-Day Weather Forecast

Advertisements
Track Severe Weather on mobile